createdAt,value
2023-03-04T00:02:24.780Z,3.10
2023-03-04T00:04:51.665Z,1.20
2023-03-04T00:07:19.046Z,1.20
2023-03-04T00:09:47.058Z,1.20
2023-03-04T00:12:14.175Z,1.30
2023-03-04T00:14:41.506Z,1.30
2023-03-04T00:17:08.865Z,1.30
2023-03-04T00:19:36.476Z,1.30
2023-03-04T00:22:04.580Z,1.30
2023-03-04T00:24:32.026Z,1.30
2023-03-04T00:26:58.987Z,1.30
2023-03-04T00:29:25.875Z,1.30
2023-03-04T00:31:52.774Z,1.30
2023-03-04T00:34:19.925Z,1.30
2023-03-04T00:36:46.974Z,1.80
2023-03-04T00:39:14.548Z,1.70
2023-03-04T00:41:41.502Z,2.00
2023-03-04T00:44:08.809Z,1.40
2023-03-04T00:46:35.857Z,1.40
2023-03-04T00:49:02.701Z,1.40
2023-03-04T00:51:29.612Z,1.40
2023-03-04T00:53:57.741Z,1.40
2023-03-04T00:56:25.366Z,1.50
2023-03-04T00:58:52.258Z,1.40
2023-03-04T01:01:19.135Z,2.20
2023-03-04T01:03:46.092Z,1.50
2023-03-04T01:06:13.275Z,1.50
2023-03-04T01:11:07.685Z,1.50
2023-03-04T01:13:34.773Z,1.50
2023-03-04T01:16:03.614Z,1.70
2023-03-04T02:00:33.187Z,1.80
2023-03-04T02:03:04.488Z,1.60
2023-03-04T02:33:10.527Z,1.80
2023-03-04T02:40:35.884Z,1.80
2023-03-04T02:53:01.186Z,1.90
2023-03-04T03:15:08.429Z,1.90
2023-03-04T03:54:25.309Z,2.00
2023-03-04T03:56:52.259Z,2.00
2023-03-04T03:59:19.263Z,1.90
2023-03-04T05:25:20.540Z,2.30
2023-03-04T05:30:14.838Z,2.20
2023-03-04T05:40:05.329Z,2.20
2023-03-04T05:42:32.197Z,2.30
2023-03-04T05:44:59.015Z,2.40
2023-03-04T05:47:25.812Z,2.20
2023-03-04T05:49:52.830Z,2.20
2023-03-04T05:52:19.698Z,2.10
2023-03-04T05:54:46.615Z,2.20
2023-03-04T05:57:13.455Z,2.20
2023-03-04T05:59:40.292Z,2.30
2023-03-04T06:04:34.495Z,2.30
2023-03-04T06:07:01.373Z,2.30
2023-03-04T06:09:28.178Z,2.20
2023-03-04T06:11:54.981Z,2.20
2023-03-04T06:14:21.873Z,2.30
2023-03-04T06:16:48.711Z,2.20
2023-03-04T06:19:15.681Z,2.40
2023-03-04T06:21:42.515Z,2.40
2023-03-04T06:24:09.396Z,2.40
2023-03-04T06:26:36.289Z,2.50
2023-03-04T06:29:04.487Z,3.50
2023-03-04T06:31:31.371Z,2.40
2023-03-04T06:33:58.307Z,2.40
2023-03-04T06:36:25.132Z,2.40
2023-03-04T06:38:52.092Z,2.50
2023-03-04T06:41:19.118Z,2.50
2023-03-04T06:43:46.037Z,2.50
2023-03-04T06:46:12.997Z,2.50
2023-03-04T06:51:09.621Z,2.60
2023-03-04T06:53:37.066Z,2.70
2023-03-04T06:56:04.345Z,2.60
2023-03-04T06:58:31.180Z,2.60
2023-03-04T07:00:58.259Z,2.60
2023-03-04T07:03:25.206Z,2.60
2023-03-04T07:05:52.341Z,2.70
2023-03-04T07:08:21.635Z,2.70
2023-03-04T07:10:49.611Z,2.70
2023-03-04T07:13:16.529Z,2.70
2023-03-04T07:15:43.406Z,2.70
2023-03-04T07:18:10.295Z,2.70
2023-03-04T07:20:37.454Z,2.70
2023-03-04T07:23:04.308Z,2.70
2023-03-04T07:25:31.162Z,2.80
2023-03-04T07:27:58.070Z,2.80
2023-03-04T07:30:25.019Z,3.70
2023-03-04T07:32:51.920Z,2.80
2023-03-04T07:35:18.838Z,2.80
2023-03-04T07:37:45.706Z,2.80
2023-03-04T07:40:12.938Z,2.80
2023-03-04T07:42:39.809Z,2.80
2023-03-04T07:45:15.252Z,2.90
2023-03-04T07:47:42.328Z,2.90
2023-03-04T07:50:10.680Z,2.90
2023-03-04T07:52:42.750Z,2.90
2023-03-04T07:55:10.731Z,2.90
2023-03-04T07:57:46.019Z,3.00
2023-03-04T08:00:15.205Z,3.00
2023-03-04T08:02:42.442Z,3.10
2023-03-04T08:05:09.646Z,3.10
2023-03-04T08:07:36.592Z,3.10
2023-03-04T08:10:04.286Z,3.20
2023-03-04T08:12:31.206Z,3.20
2023-03-04T08:14:58.039Z,3.20
2023-03-04T08:17:24.925Z,3.20
2023-03-04T08:19:51.987Z,3.30
2023-03-04T08:22:18.824Z,3.30
2023-03-04T08:24:45.698Z,3.30
2023-03-04T08:27:12.626Z,3.40
2023-03-04T08:29:39.622Z,3.40
2023-03-04T08:32:06.677Z,3.40
2023-03-04T08:34:33.600Z,3.50
2023-03-04T08:37:00.648Z,3.50
2023-03-04T08:39:27.510Z,3.50
2023-03-04T08:41:54.391Z,3.50
2023-03-04T08:44:21.277Z,3.60
2023-03-04T08:46:48.332Z,3.50
2023-03-04T08:49:15.368Z,3.60
2023-03-04T08:51:42.928Z,3.60
2023-03-04T08:54:09.823Z,3.70
2023-03-04T08:56:36.809Z,3.70
2023-03-04T08:59:03.936Z,3.70
2023-03-04T09:01:30.798Z,3.70
2023-03-04T09:03:57.827Z,3.70
2023-03-04T09:06:24.767Z,3.80
2023-03-04T09:08:51.581Z,3.80
2023-03-04T09:11:18.508Z,3.90
2023-03-04T09:13:45.454Z,4.00
2023-03-04T09:16:14.189Z,4.00
2023-03-04T09:18:42.264Z,4.20
2023-03-04T09:21:09.879Z,4.20
2023-03-04T09:23:37.537Z,4.30
2023-03-04T09:26:19.488Z,4.30
2023-03-04T09:28:46.343Z,4.40
2023-03-04T09:31:16.532Z,3.70
2023-03-04T09:33:43.556Z,4.50
2023-03-04T09:36:12.714Z,4.50
2023-03-04T09:38:40.711Z,5.20
2023-03-04T09:41:37.466Z,4.70
2023-03-04T09:44:28.542Z,4.50
2023-03-04T09:47:00.230Z,5.00
2023-03-04T09:49:29.495Z,4.80
2023-03-04T09:52:10.285Z,4.80
2023-03-04T09:55:06.441Z,5.50
2023-03-04T09:58:04.959Z,4.80
2023-03-04T10:03:21.389Z,4.90
2023-03-04T10:06:08.059Z,5.20
2023-03-04T10:08:52.792Z,5.00
2023-03-04T10:11:49.304Z,5.20
2023-03-04T10:14:22.435Z,5.20
2023-03-04T10:16:59.440Z,5.20
2023-03-04T10:19:34.953Z,5.30
2023-03-04T10:22:10.866Z,5.50
2023-03-04T10:24:37.694Z,5.60
2023-03-04T10:27:12.304Z,5.60
2023-03-04T10:29:39.547Z,5.60
2023-03-04T10:32:09.005Z,5.80
2023-03-04T10:34:35.902Z,5.60
2023-03-04T10:37:07.633Z,6.20
2023-03-04T10:39:40.270Z,6.90
2023-03-04T10:42:30.070Z,6.60
2023-03-04T10:45:00.280Z,7.00
2023-03-04T10:47:31.405Z,6.90
2023-03-04T10:50:03.448Z,7.00
2023-03-04T10:52:32.888Z,8.00
2023-03-04T10:55:06.952Z,6.90
2023-03-04T10:57:37.767Z,6.90
2023-03-04T11:00:22.843Z,6.80
2023-03-04T11:05:25.361Z,6.90
2023-03-04T11:07:59.319Z,7.10
2023-03-04T11:10:36.774Z,7.10
2023-03-04T11:13:14.528Z,7.10
2023-03-04T11:15:52.255Z,7.10
2023-03-04T11:18:27.203Z,7.00
2023-03-04T11:20:55.324Z,7.00
2023-03-04T11:23:51.064Z,7.10
2023-03-04T11:26:28.626Z,7.10
2023-03-04T11:29:37.030Z,7.20
2023-03-04T11:32:20.745Z,7.20
2023-03-04T11:34:59.140Z,7.30
2023-03-04T11:37:57.715Z,7.40
2023-03-04T11:40:44.635Z,7.50
2023-03-04T11:43:19.649Z,7.40
2023-03-04T11:46:23.156Z,7.40
2023-03-04T11:49:24.267Z,7.20
2023-03-04T11:52:25.011Z,7.10
2023-03-04T11:55:03.607Z,7.10
2023-03-04T11:57:54.707Z,7.00
2023-03-04T12:00:31.112Z,6.90
2023-03-04T12:03:30.143Z,6.80
2023-03-04T12:06:34.374Z,6.70
2023-03-04T12:09:14.065Z,6.80
2023-03-04T12:11:46.864Z,6.90
2023-03-04T12:14:28.524Z,7.00
2023-03-04T12:17:01.532Z,7.10
2023-03-04T12:19:35.153Z,7.20
2023-03-04T12:22:17.075Z,7.30
2023-03-04T12:24:56.781Z,7.30
2023-03-04T12:29:59.883Z,7.10
2023-03-04T12:32:55.945Z,7.30
2023-03-04T12:35:37.092Z,7.30
2023-03-04T12:38:37.269Z,7.10
2023-03-04T12:41:23.417Z,7.10
2023-03-04T12:44:08.758Z,7.00
2023-03-04T12:47:14.405Z,7.00
2023-03-04T12:50:05.954Z,7.10
2023-03-04T12:53:04.916Z,7.30
2023-03-04T12:55:39.265Z,7.20
2023-03-04T12:58:27.355Z,7.10
2023-03-04T13:01:26.150Z,7.00
2023-03-04T13:04:17.670Z,6.90
2023-03-04T13:07:12.697Z,6.80
2023-03-04T13:10:11.071Z,6.80
2023-03-04T13:12:49.588Z,6.80
2023-03-04T13:15:29.126Z,6.70
2023-03-04T13:18:02.104Z,6.60
2023-03-04T13:20:40.472Z,6.50
2023-03-04T13:23:10.380Z,6.60
2023-03-04T13:26:16.779Z,6.60
2023-03-04T13:28:43.836Z,6.60
2023-03-04T13:31:10.707Z,6.60
2023-03-04T13:33:37.505Z,6.60
2023-03-04T13:36:06.430Z,6.60
2023-03-04T13:38:39.460Z,7.00
2023-03-04T13:41:16.704Z,6.60
2023-03-04T13:43:47.606Z,6.50
2023-03-04T13:46:20.437Z,6.40
2023-03-04T13:51:44.176Z,6.10
2023-03-04T13:54:20.016Z,6.60
2023-03-04T13:57:00.470Z,6.20
2023-03-04T13:59:45.883Z,8.70
2023-03-04T14:02:18.791Z,6.10
2023-03-04T14:04:48.187Z,6.10
2023-03-04T14:07:33.495Z,6.00
2023-03-04T14:10:12.611Z,5.90
2023-03-04T14:12:49.854Z,5.10
2023-03-04T14:15:22.662Z,6.20
2023-03-04T14:17:54.742Z,5.90
2023-03-04T14:20:35.404Z,5.90
2023-03-04T14:23:21.975Z,6.00
2023-03-04T14:28:18.934Z,4.60
2023-03-04T14:30:55.634Z,6.00
2023-03-04T14:33:25.783Z,6.00
2023-03-04T14:35:55.778Z,6.10
2023-03-04T14:38:32.704Z,6.10
2023-03-04T14:41:08.976Z,6.10
2023-03-04T14:43:53.443Z,6.10
2023-03-04T14:46:22.782Z,6.10
2023-03-04T14:48:52.479Z,6.10
2023-03-04T14:51:51.669Z,6.10
2023-03-04T14:54:41.012Z,6.10
2023-03-04T14:57:22.337Z,6.50
2023-03-04T15:04:46.595Z,6.00
2023-03-04T15:07:44.878Z,6.00
2023-03-04T15:10:12.840Z,7.00
2023-03-04T15:15:38.102Z,6.30
2023-03-04T15:21:00.120Z,5.10
2023-03-04T15:23:29.459Z,6.00
2023-03-04T15:25:59.548Z,5.80
2023-03-04T15:28:37.323Z,5.80
2023-03-04T15:31:07.895Z,5.70
2023-03-04T15:33:34.907Z,5.70
2023-03-04T15:36:03.038Z,5.70
2023-03-04T15:38:30.511Z,5.70
2023-03-04T15:40:59.692Z,5.60
2023-03-04T15:43:27.164Z,5.60
2023-03-04T15:45:54.348Z,5.60
2023-03-04T15:48:21.738Z,5.60
2023-03-04T15:56:02.597Z,7.30
2023-03-04T15:58:30.457Z,5.70
2023-03-04T16:00:57.965Z,5.50
2023-03-04T16:03:24.836Z,5.50
2023-03-04T16:05:52.913Z,5.40
2023-03-04T16:08:21.788Z,5.40
2023-03-04T16:10:49.164Z,5.40
2023-03-04T16:13:19.010Z,5.30
2023-03-04T16:15:46.578Z,5.10
2023-03-04T16:18:14.783Z,5.40
2023-03-04T16:20:46.036Z,5.40
2023-03-04T16:23:15.893Z,5.30
2023-03-04T16:28:12.853Z,5.30
2023-03-04T16:30:40.722Z,5.30
2023-03-04T16:33:08.041Z,5.20
2023-03-04T16:35:36.802Z,5.20
2023-03-04T16:38:06.353Z,5.20
2023-03-04T16:40:33.680Z,5.10
2023-03-04T16:43:00.620Z,5.10
2023-03-04T16:45:31.535Z,5.10
2023-03-04T16:47:58.437Z,5.10
2023-03-04T16:50:29.049Z,5.00
2023-03-04T16:52:56.733Z,5.00
2023-03-04T16:55:29.003Z,5.00
2023-03-04T16:57:57.844Z,5.00
2023-03-04T17:00:27.661Z,5.00
2023-03-04T17:02:59.869Z,5.00
2023-03-04T17:05:30.426Z,5.00
2023-03-04T17:07:57.866Z,4.90
2023-03-04T17:10:25.518Z,4.90
2023-03-04T17:12:52.793Z,5.00
2023-03-04T17:15:19.742Z,5.00
2023-03-04T17:18:05.516Z,5.00
2023-03-04T17:20:32.359Z,4.90
2023-03-04T17:22:59.213Z,4.90
2023-03-04T17:25:26.050Z,4.90
2023-03-04T17:30:20.214Z,5.10
2023-03-04T17:35:17.089Z,4.90
2023-03-04T17:40:15.283Z,4.60
2023-03-04T17:42:43.458Z,4.90
2023-03-04T17:45:10.908Z,4.90
2023-03-04T17:47:38.182Z,4.90
2023-03-04T17:50:06.877Z,4.80
2023-03-04T17:52:34.073Z,4.80
2023-03-04T17:55:00.891Z,4.80
2023-03-04T17:57:28.994Z,4.80
2023-03-04T18:09:47.302Z,4.90
2023-03-04T18:12:14.983Z,4.80
2023-03-04T18:14:41.795Z,4.70
2023-03-04T18:17:08.643Z,4.70
2023-03-04T18:19:35.688Z,4.60
2023-03-04T18:22:02.564Z,4.40
2023-03-04T18:24:29.458Z,4.60
2023-03-04T18:26:56.979Z,4.60
2023-03-04T18:41:43.745Z,4.80
2023-03-04T18:44:11.064Z,4.70
2023-03-04T18:46:53.229Z,4.60
2023-03-04T18:49:21.008Z,4.60
2023-03-04T18:51:47.896Z,4.50
2023-03-04T18:56:51.721Z,4.50
2023-03-04T19:01:46.980Z,4.40
2023-03-04T19:04:15.828Z,4.50
2023-03-04T19:31:16.669Z,4.80
2023-03-04T19:33:43.558Z,4.80
2023-03-04T19:36:10.852Z,4.60
2023-03-04T19:38:37.909Z,4.40
2023-03-04T19:41:13.577Z,4.10
2023-03-04T19:46:10.540Z,4.40
2023-03-04T19:48:38.911Z,4.40
2023-03-04T19:51:17.031Z,4.30
2023-03-04T19:56:13.440Z,4.30
2023-03-04T19:58:41.374Z,4.40
2023-03-04T20:01:34.146Z,4.60
2023-03-04T20:04:16.048Z,4.40
2023-03-04T20:06:45.231Z,4.20
2023-03-04T20:09:13.866Z,4.30
2023-03-04T20:11:56.284Z,4.30
2023-03-04T20:14:26.012Z,4.10
2023-03-04T20:16:52.974Z,4.30
2023-03-04T20:19:19.873Z,4.10
2023-03-04T20:21:46.697Z,4.10
2023-03-04T20:24:15.213Z,4.00
2023-03-04T20:26:44.343Z,4.10
2023-03-04T20:29:11.478Z,4.10
2023-03-04T20:31:39.446Z,4.00
2023-03-04T20:34:07.529Z,4.00
2023-03-04T20:36:35.983Z,3.90
2023-03-04T20:46:46.311Z,3.90
2023-03-04T20:49:16.316Z,3.70
2023-03-04T20:51:43.556Z,4.10
2023-03-04T20:54:10.769Z,3.90
2023-03-04T20:56:38.210Z,3.50
2023-03-04T20:59:08.334Z,3.30
2023-03-04T21:01:37.719Z,3.90
2023-03-04T21:04:05.526Z,3.30
2023-03-04T21:06:32.839Z,4.00
2023-03-04T21:09:06.112Z,2.60
2023-03-04T21:11:40.494Z,3.60
2023-03-04T21:16:36.551Z,3.70
2023-03-04T21:19:03.579Z,3.70
2023-03-04T21:21:31.331Z,3.60
2023-03-04T21:23:59.516Z,3.50
2023-03-04T21:28:54.752Z,3.20
2023-03-04T21:31:25.134Z,4.00
2023-03-04T21:33:53.664Z,3.50
2023-03-04T21:36:20.986Z,3.50
2023-03-04T21:38:48.889Z,3.40
2023-03-04T21:41:22.570Z,3.40
2023-03-04T21:43:50.005Z,3.40
2023-03-04T21:46:18.145Z,3.30
2023-03-04T21:48:45.210Z,3.00
2023-03-04T21:51:14.409Z,3.10
2023-03-04T21:56:12.366Z,3.00
2023-03-04T22:01:18.541Z,3.20
2023-03-04T22:03:47.397Z,3.30
2023-03-04T22:06:15.058Z,3.40
2023-03-04T22:08:42.549Z,4.50
2023-03-04T22:11:11.194Z,2.80
2023-03-04T22:13:39.884Z,3.00
2023-03-04T22:16:07.883Z,3.10
2023-03-04T22:18:35.816Z,3.60
2023-03-04T22:21:06.216Z,3.00
2023-03-04T22:23:33.692Z,2.90
2023-03-04T22:26:05.766Z,2.80
2023-03-04T22:28:33.408Z,2.80
2023-03-04T22:31:02.000Z,3.00
2023-03-04T22:33:31.247Z,3.00
2023-03-04T22:35:59.040Z,3.00
2023-03-04T22:38:25.862Z,4.00
2023-03-04T22:40:52.697Z,3.00
2023-03-04T22:43:19.536Z,3.00
2023-03-04T22:45:46.600Z,3.00
2023-03-04T22:48:14.565Z,2.90
2023-03-04T22:50:41.939Z,2.90
2023-03-04T22:53:08.872Z,3.00
2023-03-04T22:55:35.794Z,2.90
2023-03-04T22:58:04.168Z,3.10
2023-03-04T23:00:32.159Z,3.00
2023-03-04T23:02:59.196Z,3.40
2023-03-04T23:05:26.374Z,3.00
2023-03-04T23:07:53.337Z,3.20
2023-03-04T23:10:23.854Z,3.10
2023-03-04T23:12:51.687Z,2.80
2023-03-04T23:15:19.809Z,2.70
2023-03-04T23:17:47.294Z,2.90
2023-03-04T23:20:17.946Z,4.70
2023-03-04T23:22:48.410Z,2.70
2023-03-04T23:25:16.529Z,2.60
2023-03-04T23:27:43.968Z,3.00
2023-03-04T23:30:15.094Z,3.00
2023-03-04T23:32:43.309Z,2.30
2023-03-04T23:35:10.296Z,2.10
2023-03-04T23:40:04.711Z,2.70
2023-03-04T23:42:31.671Z,2.30
2023-03-04T23:44:58.537Z,2.40
2023-03-04T23:47:25.511Z,2.20
2023-03-04T23:49:52.358Z,2.50
2023-03-04T23:54:46.534Z,2.90
2023-03-04T23:57:13.434Z,2.40
2023-03-04T23:59:40.299Z,2.50
